createdAt,value
2023-10-15T00:00:09.437Z,0.52
2023-10-15T00:02:39.815Z,0.50
2023-10-15T00:05:10.856Z,0.50
2023-10-15T00:07:41.358Z,0.50
2023-10-15T00:10:16.319Z,0.43
2023-10-15T00:12:48.432Z,0.60
2023-10-15T00:15:20.651Z,0.63
2023-10-15T00:17:52.367Z,0.50
2023-10-15T00:20:24.714Z,0.50
2023-10-15T00:22:55.795Z,0.70
2023-10-15T00:27:59.963Z,0.77
2023-10-15T00:30:34.128Z,0.60
2023-10-15T00:33:08.652Z,0.50
2023-10-15T00:35:39.517Z,0.60
2023-10-15T00:38:14.030Z,0.70
2023-10-15T00:40:47.996Z,0.63
2023-10-15T00:43:19.593Z,0.60
2023-10-15T00:45:50.583Z,0.70
2023-10-15T00:48:35.621Z,0.50
2023-10-15T00:51:10.795Z,0.55
2023-10-15T00:53:49.505Z,0.40
2023-10-15T00:56:24.717Z,0.40
2023-10-15T00:59:18.026Z,0.38
2023-10-15T01:01:56.394Z,0.47
2023-10-15T01:04:33.329Z,0.43
2023-10-15T01:07:14.932Z,0.60
2023-10-15T01:09:45.681Z,0.35
2023-10-15T01:12:26.474Z,0.55
2023-10-15T01:14:57.036Z,0.40
2023-10-15T01:17:28.246Z,0.52
2023-10-15T01:19:58.839Z,0.68
2023-10-15T01:22:33.834Z,0.68
2023-10-15T01:25:26.760Z,0.98
2023-10-15T01:28:01.842Z,0.52
2023-10-15T01:30:37.435Z,0.60
2023-10-15T01:33:12.357Z,0.73
2023-10-15T01:35:45.827Z,0.57
2023-10-15T01:38:21.900Z,0.63
2023-10-15T01:40:58.209Z,0.57
2023-10-15T01:43:29.325Z,0.50
2023-10-15T01:48:41.293Z,0.47
2023-10-15T01:51:13.449Z,0.40
2023-10-15T01:53:46.601Z,0.40
2023-10-15T01:56:22.422Z,0.40
2023-10-15T01:58:53.705Z,0.30
2023-10-15T02:01:39.103Z,0.45
2023-10-15T02:04:11.360Z,0.40
2023-10-15T02:06:44.702Z,0.30
2023-10-15T02:09:22.705Z,0.40
2023-10-15T02:11:55.902Z,0.30
2023-10-15T02:14:29.011Z,0.50
2023-10-15T02:17:01.578Z,0.30
2023-10-15T02:19:36.524Z,0.40
2023-10-15T02:22:13.709Z,0.30
2023-10-15T02:24:48.220Z,0.40
2023-10-15T02:27:26.873Z,0.38
2023-10-15T02:29:57.880Z,0.50
2023-10-15T02:32:34.756Z,0.40
2023-10-15T02:35:14.437Z,0.30
2023-10-15T02:37:48.581Z,0.57
2023-10-15T02:40:21.183Z,0.55
2023-10-15T02:42:58.245Z,0.30
2023-10-15T02:45:37.164Z,0.40
2023-10-15T02:48:12.238Z,0.40
2023-10-15T02:50:42.677Z,0.60
2023-10-15T02:53:13.873Z,0.43
2023-10-15T02:58:28.572Z,0.30
2023-10-15T03:01:01.510Z,0.50
2023-10-15T03:03:38.135Z,0.40
2023-10-15T03:06:12.327Z,0.40
2023-10-15T03:08:50.128Z,0.38
2023-10-15T03:11:22.592Z,0.30
2023-10-15T03:13:56.984Z,0.30
2023-10-15T03:16:31.642Z,0.30
2023-10-15T03:19:11.008Z,0.30
2023-10-15T03:21:42.123Z,0.30
2023-10-15T03:24:16.010Z,0.40
2023-10-15T03:26:49.092Z,0.30
2023-10-15T03:29:25.118Z,0.30
2023-10-15T03:31:56.004Z,0.25
2023-10-15T03:34:27.366Z,0.40
2023-10-15T03:36:59.891Z,0.30
2023-10-15T03:39:45.937Z,0.32
2023-10-15T03:42:27.693Z,0.40
2023-10-15T03:45:09.726Z,0.40
2023-10-15T03:47:42.458Z,0.43
2023-10-15T03:50:13.055Z,0.40
2023-10-15T03:52:45.870Z,0.38
2023-10-15T03:55:16.616Z,0.40
2023-10-15T03:57:50.492Z,0.32
2023-10-15T04:00:37.192Z,0.30
2023-10-15T04:03:20.260Z,0.35
2023-10-15T04:06:02.489Z,0.47
2023-10-15T04:08:33.097Z,0.40
2023-10-15T04:11:03.691Z,0.40
2023-10-15T04:13:34.483Z,0.32
2023-10-15T04:16:07.507Z,0.30
2023-10-15T04:18:38.964Z,0.40
2023-10-15T04:21:10.881Z,0.38
2023-10-15T04:23:41.453Z,0.75
2023-10-15T04:26:14.333Z,0.35
2023-10-15T04:28:44.862Z,0.20
2023-10-15T04:31:23.270Z,0.40
2023-10-15T04:33:55.668Z,0.50
2023-10-15T04:36:26.551Z,0.35
2023-10-15T04:39:10.131Z,0.40
2023-10-15T04:41:40.539Z,0.40
2023-10-15T04:44:14.609Z,0.40
2023-10-15T04:46:48.178Z,0.55
2023-10-15T04:49:20.323Z,0.30
2023-10-15T04:51:50.827Z,0.40
2023-10-15T04:54:25.308Z,0.50
2023-10-15T04:56:56.788Z,0.32
2023-10-15T04:59:27.140Z,0.40
2023-10-15T05:02:00.156Z,0.63
2023-10-15T05:04:30.593Z,0.30
2023-10-15T05:07:01.472Z,0.30
2023-10-15T05:09:41.448Z,0.30
2023-10-15T05:12:11.867Z,0.40
2023-10-15T05:14:42.416Z,0.40
2023-10-15T05:17:16.323Z,0.30
2023-10-15T05:19:47.244Z,0.40
2023-10-15T05:22:17.576Z,0.20
2023-10-15T05:24:47.865Z,0.40
2023-10-15T05:27:18.265Z,0.52
2023-10-15T05:29:48.542Z,0.80
2023-10-15T05:32:21.589Z,1.03
2023-10-15T05:34:53.307Z,0.50
2023-10-15T05:37:23.650Z,0.60
2023-10-15T05:39:53.975Z,0.43
2023-10-15T05:42:24.470Z,0.50
2023-10-15T05:44:54.814Z,0.35
2023-10-15T05:47:28.018Z,0.50
2023-10-15T05:49:59.750Z,0.70
2023-10-15T05:52:30.315Z,0.50
2023-10-15T05:55:02.693Z,0.40
2023-10-15T05:57:33.291Z,0.70
2023-10-15T06:00:19.624Z,0.30
2023-10-15T06:02:53.437Z,0.40
2023-10-15T06:05:24.021Z,0.50
2023-10-15T06:07:56.431Z,0.60
2023-10-15T06:10:31.020Z,0.50
2023-10-15T06:13:01.312Z,0.70
2023-10-15T06:15:31.770Z,0.50
2023-10-15T06:18:04.862Z,0.50
2023-10-15T06:20:35.374Z,0.40
2023-10-15T06:23:09.765Z,0.40
2023-10-15T06:25:40.470Z,0.40
2023-10-15T06:28:15.578Z,0.43
2023-10-15T06:30:46.422Z,0.40
2023-10-15T06:33:19.713Z,0.50
2023-10-15T06:35:50.017Z,0.55
2023-10-15T06:38:21.044Z,0.50
2023-10-15T06:40:53.594Z,0.45
2023-10-15T06:43:25.235Z,0.43
2023-10-15T06:45:56.421Z,0.40
2023-10-15T06:50:59.841Z,0.50
2023-10-15T06:53:30.288Z,0.50
2023-10-15T06:56:00.740Z,0.40
2023-10-15T06:58:31.690Z,0.28
2023-10-15T07:01:03.813Z,0.43
2023-10-15T07:03:37.405Z,0.38
2023-10-15T07:06:08.137Z,0.40
2023-10-15T07:08:38.803Z,0.40
2023-10-15T07:11:10.106Z,0.40
2023-10-15T07:13:40.839Z,0.35
2023-10-15T07:16:12.596Z,0.60
2023-10-15T07:18:45.897Z,0.50
2023-10-15T07:21:16.858Z,0.63
2023-10-15T07:23:47.797Z,0.60
2023-10-15T07:26:18.745Z,0.73
2023-10-15T07:28:50.821Z,1.08
2023-10-15T07:31:21.673Z,0.73
2023-10-15T07:33:54.852Z,0.50
2023-10-15T07:36:25.993Z,0.52
2023-10-15T07:41:30.082Z,0.43
2023-10-15T07:44:02.224Z,0.73
2023-10-15T07:46:35.064Z,0.65
2023-10-15T07:49:08.740Z,0.70
2023-10-15T07:51:39.523Z,0.60
2023-10-15T07:54:10.486Z,0.65
2023-10-15T07:56:41.274Z,0.75
2023-10-15T07:59:11.945Z,0.70
2023-10-15T08:01:42.588Z,0.45
2023-10-15T08:04:16.300Z,0.65
2023-10-15T08:06:48.315Z,0.65
2023-10-15T08:09:18.849Z,0.68
2023-10-15T08:11:49.658Z,0.60
2023-10-15T08:14:21.445Z,0.50
2023-10-15T08:16:51.826Z,0.40
2023-10-15T08:19:25.298Z,0.70
2023-10-15T08:21:55.803Z,0.50
2023-10-15T08:24:27.005Z,0.45
2023-10-15T08:26:57.752Z,0.40
2023-10-15T08:29:28.557Z,0.50
2023-10-15T08:31:59.050Z,0.50
2023-10-15T08:34:32.514Z,0.52
2023-10-15T08:37:04.044Z,0.43
2023-10-15T08:39:37.728Z,0.40
2023-10-15T08:42:12.829Z,0.50
2023-10-15T08:44:43.829Z,0.40
2023-10-15T08:47:15.360Z,0.80
2023-10-15T08:49:54.190Z,0.50
2023-10-15T08:52:25.800Z,0.70
2023-10-15T08:54:57.514Z,0.60
2023-10-15T08:57:29.514Z,0.90
2023-10-15T09:00:01.979Z,0.70
2023-10-15T09:02:34.698Z,0.65
2023-10-15T09:05:09.880Z,0.77
2023-10-15T09:07:40.837Z,1.35
2023-10-15T09:10:15.331Z,0.52
2023-10-15T09:12:45.783Z,0.47
2023-10-15T09:15:20.733Z,0.40
2023-10-15T09:17:59.853Z,0.65
2023-10-15T09:20:34.447Z,0.50
2023-10-15T09:23:05.668Z,0.50
2023-10-15T09:25:36.103Z,0.50
2023-10-15T09:28:06.844Z,0.82
2023-10-15T09:30:37.218Z,0.50
2023-10-15T09:33:14.147Z,0.65
2023-10-15T09:35:47.730Z,0.60
2023-10-15T09:38:18.797Z,0.60
2023-10-15T09:43:20.191Z,0.80
2023-10-15T09:48:22.352Z,0.60
2023-10-15T09:50:58.710Z,0.40
2023-10-15T09:53:30.156Z,0.70
2023-10-15T09:56:09.204Z,0.57
2023-10-15T09:58:40.365Z,0.40
2023-10-15T10:01:18.707Z,0.55
2023-10-15T10:04:25.117Z,0.40
2023-10-15T10:07:31.601Z,0.40
2023-10-15T10:10:33.247Z,0.35
2023-10-15T10:13:54.152Z,0.50
2023-10-15T10:16:29.201Z,0.70
2023-10-15T10:18:59.958Z,0.65
2023-10-15T10:21:36.099Z,0.65
2023-10-15T10:24:13.832Z,0.55
2023-10-15T10:26:44.402Z,0.80
2023-10-15T10:29:17.691Z,0.65
2023-10-15T10:31:50.784Z,0.82
2023-10-15T10:34:33.214Z,0.60
2023-10-15T10:37:05.150Z,0.68
2023-10-15T10:39:50.752Z,0.70
2023-10-15T10:42:27.962Z,0.90
2023-10-15T10:44:59.730Z,1.10
2023-10-15T10:47:35.410Z,1.10
2023-10-15T10:50:07.797Z,0.60
2023-10-15T10:52:39.390Z,0.90
2023-10-15T10:55:37.194Z,0.68
2023-10-15T10:58:11.754Z,0.55
2023-10-15T11:00:42.445Z,0.60
2023-10-15T11:03:13.696Z,0.68
2023-10-15T11:05:46.434Z,0.95
2023-10-15T11:08:23.411Z,0.65
2023-10-15T11:11:00.973Z,0.73
2023-10-15T11:13:33.423Z,0.60
2023-10-15T11:16:03.923Z,0.80
2023-10-15T11:18:36.565Z,0.68
2023-10-15T11:21:08.901Z,0.50
2023-10-15T11:23:40.154Z,0.60
2023-10-15T11:26:13.466Z,0.50
2023-10-15T11:28:43.992Z,0.38
2023-10-15T11:31:14.876Z,0.60
2023-10-15T11:33:46.377Z,0.40
2023-10-15T11:36:18.849Z,0.45
2023-10-15T11:38:49.285Z,0.43
2023-10-15T11:41:24.312Z,0.50
2023-10-15T11:43:56.799Z,0.75
2023-10-15T11:46:27.675Z,0.70
2023-10-15T11:48:59.674Z,0.40
2023-10-15T11:51:30.502Z,0.30
2023-10-15T11:54:03.859Z,0.60
2023-10-15T11:56:37.003Z,0.90
2023-10-15T11:59:07.712Z,1.00
2023-10-15T12:01:39.538Z,0.60
2023-10-15T12:04:12.528Z,0.70
2023-10-15T12:06:45.293Z,1.30
2023-10-15T12:09:18.324Z,0.93
2023-10-15T12:11:51.467Z,0.80
2023-10-15T12:14:22.261Z,0.80
2023-10-15T12:16:52.651Z,0.65
2023-10-15T12:19:23.638Z,0.60
2023-10-15T12:24:24.709Z,0.98
2023-10-15T12:26:58.439Z,0.70
2023-10-15T12:29:33.013Z,0.70
2023-10-15T12:32:04.437Z,0.88
2023-10-15T12:34:35.424Z,1.00
2023-10-15T12:37:09.258Z,1.10
2023-10-15T12:39:42.519Z,2.70
2023-10-15T12:42:18.453Z,1.88
2023-10-15T12:44:49.268Z,2.50
2023-10-15T12:47:19.905Z,3.03
2023-10-15T12:49:50.537Z,2.40
2023-10-15T12:52:20.978Z,2.35
2023-10-15T12:54:51.334Z,2.60
2023-10-15T12:57:24.543Z,3.17
2023-10-15T12:59:55.096Z,2.83
2023-10-15T13:02:25.531Z,3.53
2023-10-15T13:04:56.125Z,2.05
2023-10-15T13:07:26.668Z,2.20
2023-10-15T13:09:56.994Z,2.10
2023-10-15T13:12:30.385Z,2.10
2023-10-15T13:15:00.838Z,2.28
2023-10-15T13:17:31.357Z,2.25
2023-10-15T13:20:06.442Z,2.10
2023-10-15T13:22:37.085Z,2.30
2023-10-15T13:25:09.256Z,2.60
2023-10-15T13:27:43.533Z,2.50
2023-10-15T13:30:18.019Z,4.20
2023-10-15T13:32:50.270Z,4.55
2023-10-15T13:35:22.152Z,4.30
2023-10-15T13:37:53.019Z,4.28
2023-10-15T13:40:25.315Z,4.30
2023-10-15T13:43:00.188Z,3.78
2023-10-15T13:45:30.957Z,3.80
2023-10-15T13:48:01.644Z,4.45
2023-10-15T13:50:32.158Z,2.70
2023-10-15T13:53:02.510Z,3.17
2023-10-15T13:55:34.544Z,3.50
2023-10-15T13:58:08.419Z,2.88
2023-10-15T14:00:39.062Z,2.13
2023-10-15T14:03:09.677Z,2.40
2023-10-15T14:05:42.611Z,2.90
2023-10-15T14:08:13.500Z,2.20
2023-10-15T14:10:44.298Z,2.40
2023-10-15T14:13:20.755Z,1.67
2023-10-15T14:15:52.317Z,1.73
2023-10-15T14:18:22.737Z,1.63
2023-10-15T14:20:53.251Z,1.23
2023-10-15T14:23:24.811Z,1.40
2023-10-15T14:25:56.090Z,1.33
2023-10-15T14:28:29.185Z,1.20
2023-10-15T14:31:00.035Z,1.40
2023-10-15T14:33:30.688Z,1.52
2023-10-15T14:36:04.256Z,1.55
2023-10-15T14:38:34.644Z,2.33
2023-10-15T14:41:06.516Z,1.70
2023-10-15T14:43:39.697Z,2.38
2023-10-15T14:46:10.445Z,2.13
2023-10-15T14:48:41.505Z,2.20
2023-10-15T14:53:43.131Z,1.98
2023-10-15T14:56:14.060Z,0.90
2023-10-15T14:58:47.438Z,1.63
2023-10-15T15:01:18.351Z,1.30
2023-10-15T15:03:49.538Z,1.83
2023-10-15T15:06:20.491Z,1.40
2023-10-15T15:08:51.280Z,1.30
2023-10-15T15:11:22.481Z,1.63
2023-10-15T15:13:56.252Z,1.20
2023-10-15T15:16:27.771Z,1.63
2023-10-15T15:19:01.149Z,1.77
2023-10-15T15:21:32.498Z,1.42
2023-10-15T15:24:04.009Z,1.52
2023-10-15T15:26:35.375Z,1.30
2023-10-15T15:29:09.217Z,1.20
2023-10-15T15:31:45.009Z,1.00
2023-10-15T15:34:16.347Z,0.80
2023-10-15T15:36:48.116Z,1.10
2023-10-15T15:39:20.140Z,1.05
2023-10-15T15:41:51.219Z,0.80
2023-10-15T15:44:25.159Z,0.85
2023-10-15T15:46:56.627Z,0.93
2023-10-15T15:49:29.264Z,0.98
2023-10-15T15:52:00.161Z,0.80
2023-10-15T15:54:32.198Z,1.20
2023-10-15T15:57:03.883Z,1.65
2023-10-15T15:59:37.780Z,1.77
2023-10-15T16:02:08.960Z,1.30
2023-10-15T16:04:40.123Z,1.10
2023-10-15T16:07:11.699Z,1.30
2023-10-15T16:09:43.156Z,1.52
2023-10-15T16:12:15.402Z,0.68
2023-10-15T16:14:48.980Z,0.95
2023-10-15T16:17:20.624Z,0.80
2023-10-15T16:19:53.657Z,1.02
2023-10-15T16:22:25.795Z,0.73
2023-10-15T16:25:06.297Z,0.70
2023-10-15T16:27:37.761Z,0.70
2023-10-15T16:30:13.926Z,0.80
2023-10-15T16:32:44.978Z,0.90
2023-10-15T16:35:18.064Z,0.80
2023-10-15T16:37:50.176Z,0.68
2023-10-15T16:40:21.031Z,0.77
2023-10-15T16:42:51.498Z,1.05
2023-10-15T16:45:24.870Z,1.02
2023-10-15T16:47:55.754Z,0.93
2023-10-15T16:50:26.636Z,1.27
2023-10-15T16:52:58.991Z,1.20
2023-10-15T16:55:29.685Z,0.93
2023-10-15T16:58:00.323Z,1.05
2023-10-15T17:00:35.743Z,0.90
2023-10-15T17:03:08.465Z,0.88
2023-10-15T17:05:42.259Z,1.00
2023-10-15T17:08:13.068Z,1.60
2023-10-15T17:10:43.674Z,1.52
2023-10-15T17:13:14.322Z,1.63
2023-10-15T17:15:48.053Z,1.30
2023-10-15T17:18:18.913Z,1.50
2023-10-15T17:20:49.808Z,1.58
2023-10-15T17:23:20.789Z,1.88
2023-10-15T17:28:23.436Z,1.90
2023-10-15T17:30:56.814Z,4.53
2023-10-15T17:33:29.100Z,6.15
2023-10-15T17:36:00.028Z,5.80
2023-10-15T17:38:31.163Z,5.13
2023-10-15T17:41:03.795Z,5.80
2023-10-15T17:43:35.931Z,5.18
2023-10-15T17:46:09.335Z,5.07
2023-10-15T17:48:40.639Z,4.72
2023-10-15T17:51:11.846Z,3.90
2023-10-15T17:53:42.697Z,3.05
2023-10-15T17:56:14.300Z,3.47
2023-10-15T17:58:45.102Z,2.78
2023-10-15T18:01:19.409Z,3.15
2023-10-15T18:03:50.256Z,2.88
2023-10-15T18:06:21.019Z,2.70
2023-10-15T18:08:52.502Z,2.53
2023-10-15T18:11:23.886Z,1.83
2023-10-15T18:13:55.002Z,2.00
2023-10-15T18:16:28.304Z,2.33
2023-10-15T18:19:01.708Z,1.83
2023-10-15T18:21:32.678Z,2.67
2023-10-15T18:26:34.217Z,2.22
2023-10-15T18:29:04.833Z,1.85
2023-10-15T18:31:38.048Z,1.38
2023-10-15T18:34:09.063Z,1.40
2023-10-15T18:39:12.352Z,1.40
2023-10-15T18:41:43.190Z,1.17
2023-10-15T18:44:13.882Z,1.27
2023-10-15T18:46:49.222Z,1.63
2023-10-15T18:49:20.387Z,1.30
2023-10-15T18:51:50.943Z,1.52
2023-10-15T18:54:21.809Z,1.77
2023-10-15T18:59:23.399Z,1.20
2023-10-15T19:01:57.073Z,1.17
2023-10-15T19:04:28.110Z,1.45
2023-10-15T19:06:59.016Z,1.10
2023-10-15T19:09:31.826Z,1.10
2023-10-15T19:12:02.825Z,0.93
2023-10-15T19:17:07.388Z,0.90
2023-10-15T19:19:39.963Z,0.90
2023-10-15T19:22:11.983Z,0.98
2023-10-15T19:24:46.269Z,0.90
2023-10-15T19:27:19.504Z,0.55
2023-10-15T19:29:50.595Z,0.60
2023-10-15T19:34:58.865Z,0.80
2023-10-15T19:37:31.467Z,0.60
2023-10-15T19:40:02.537Z,0.63
2023-10-15T19:45:08.187Z,0.60
2023-10-15T19:47:42.530Z,0.60
2023-10-15T19:50:18.130Z,0.50
2023-10-15T19:52:50.553Z,0.55
2023-10-15T19:55:22.357Z,0.52
2023-10-15T19:57:55.718Z,0.60
2023-10-15T20:00:29.200Z,0.77
2023-10-15T20:03:03.893Z,0.70
2023-10-15T20:05:35.344Z,0.50
2023-10-15T20:08:08.601Z,0.60
2023-10-15T20:10:42.012Z,0.60
2023-10-15T20:13:15.934Z,0.50
2023-10-15T20:15:46.926Z,0.77
2023-10-15T20:20:53.161Z,0.60
2023-10-15T20:23:25.808Z,0.40
2023-10-15T20:25:57.645Z,0.50
2023-10-15T20:28:29.225Z,0.40
2023-10-15T20:31:01.493Z,1.00
2023-10-15T20:33:35.896Z,0.55
2023-10-15T20:36:07.746Z,0.60
2023-10-15T20:38:39.925Z,0.47
2023-10-15T20:41:11.459Z,0.40
2023-10-15T20:43:46.450Z,0.40
2023-10-15T20:46:18.738Z,0.60
2023-10-15T20:51:26.652Z,0.40
2023-10-15T20:54:00.056Z,0.60
2023-10-15T20:56:31.625Z,0.50
2023-10-15T20:59:04.384Z,0.50
2023-10-15T21:01:36.374Z,0.50
2023-10-15T21:04:10.331Z,1.02
2023-10-15T21:06:43.178Z,0.70
2023-10-15T21:09:19.120Z,0.73
2023-10-15T21:11:52.288Z,0.77
2023-10-15T21:14:24.717Z,0.70
2023-10-15T21:16:56.667Z,0.50
2023-10-15T21:19:31.075Z,0.70
2023-10-15T21:22:05.347Z,0.50
2023-10-15T21:24:37.088Z,0.85
2023-10-15T21:27:09.488Z,0.70
2023-10-15T21:29:40.212Z,0.50
2023-10-15T21:32:10.879Z,0.60
2023-10-15T21:34:44.630Z,0.60
2023-10-15T21:37:15.348Z,0.60
2023-10-15T21:39:46.445Z,0.60
2023-10-15T21:42:19.027Z,0.70
2023-10-15T21:44:49.816Z,0.60
2023-10-15T21:47:20.990Z,0.60
2023-10-15T21:52:29.292Z,0.50
2023-10-15T21:55:00.207Z,0.70
2023-10-15T21:57:30.861Z,0.85
2023-10-15T22:00:01.752Z,0.40
2023-10-15T22:02:34.964Z,0.38
2023-10-15T22:05:12.765Z,0.47
2023-10-15T22:07:44.778Z,0.40
2023-10-15T22:10:16.389Z,0.35
2023-10-15T22:12:47.387Z,0.47
2023-10-15T22:20:28.822Z,0.40
2023-10-15T22:23:01.853Z,0.50
2023-10-15T22:25:33.004Z,0.43
2023-10-15T22:30:43.382Z,0.40
2023-10-15T22:33:14.854Z,0.40
2023-10-15T22:35:49.116Z,0.50
2023-10-15T22:38:21.799Z,0.40
2023-10-15T22:40:53.966Z,1.00
2023-10-15T22:43:26.029Z,0.40
2023-10-15T22:45:57.035Z,0.60
2023-10-15T22:48:28.107Z,0.30
2023-10-15T22:53:32.441Z,0.30
2023-10-15T22:56:04.455Z,0.70
2023-10-15T22:58:36.254Z,0.30
2023-10-15T23:01:07.343Z,0.30
2023-10-15T23:06:13.395Z,0.38
2023-10-15T23:08:43.885Z,0.30
2023-10-15T23:11:14.271Z,0.40
2023-10-15T23:13:44.904Z,0.40
2023-10-15T23:16:16.640Z,0.30
2023-10-15T23:18:47.498Z,0.30
2023-10-15T23:21:37.346Z,0.43
2023-10-15T23:24:15.287Z,0.32
2023-10-15T23:26:47.368Z,0.30
2023-10-15T23:29:17.961Z,0.30
2023-10-15T23:31:49.765Z,0.30
2023-10-15T23:34:20.088Z,0.50
2023-10-15T23:36:53.596Z,0.40
2023-10-15T23:39:24.213Z,0.40
2023-10-15T23:41:54.943Z,0.30
2023-10-15T23:44:26.204Z,0.30
2023-10-15T23:47:13.638Z,0.30
2023-10-15T23:49:47.648Z,0.35
2023-10-15T23:52:29.590Z,0.30
2023-10-15T23:55:01.531Z,0.40
2023-10-15T23:57:33.046Z,0.30
